sensor_id;sensor_type;location;lat;lon;timestamp;pressure;altitude;pressure_sealevel;temperature;humidity
22206;BME280;11272;50.104;8.754;2023-02-18T00:01:57;101349.59;;;13.42;78.33
22206;BME280;11272;50.104;8.754;2023-02-18T00:04:23;101344.25;;;13.43;78.39
22206;BME280;11272;50.104;8.754;2023-02-18T00:06:49;101340.69;;;13.43;78.18
22206;BME280;11272;50.104;8.754;2023-02-18T00:09:14;101345.13;;;13.42;78.13
22206;BME280;11272;50.104;8.754;2023-02-18T00:11:40;101350.47;;;13.44;78.13
22206;BME280;11272;50.104;8.754;2023-02-18T00:14:10;101352.25;;;13.42;78.07
22206;BME280;11272;50.104;8.754;2023-02-18T00:16:36;101344.34;;;13.37;78.17
22206;BME280;11272;50.104;8.754;2023-02-18T00:19:04;101351.47;;;13.37;78.42
22206;BME280;11272;50.104;8.754;2023-02-18T00:21:32;101352.34;;;13.37;78.57
22206;BME280;11272;50.104;8.754;2023-02-18T00:23:57;101344.41;;;13.34;78.42
22206;BME280;11272;50.104;8.754;2023-02-18T00:26:23;101346.22;;;13.32;78.63
22206;BME280;11272;50.104;8.754;2023-02-18T00:28:49;101339.13;;;13.31;78.77
22206;BME280;11272;50.104;8.754;2023-02-18T00:31:18;101340.06;;;13.29;78.75
22206;BME280;11272;50.104;8.754;2023-02-18T00:33:45;101346.31;;;13.28;78.75
22206;BME280;11272;50.104;8.754;2023-02-18T00:36:13;101349.91;;;13.25;78.83
22206;BME280;11272;50.104;8.754;2023-02-18T00:38:39;101359.72;;;13.23;79.00
22206;BME280;11272;50.104;8.754;2023-02-18T00:41:07;101357.97;;;13.21;79.01
22206;BME280;11272;50.104;8.754;2023-02-18T00:43:33;101352.69;;;13.19;79.30
22206;BME280;11272;50.104;8.754;2023-02-18T00:45:58;101357.09;;;13.20;79.41
22206;BME280;11272;50.104;8.754;2023-02-18T00:48:24;101346.44;;;13.20;79.45
22206;BME280;11272;50.104;8.754;2023-02-18T00:50:50;101351.75;;;13.20;79.46
22206;BME280;11272;50.104;8.754;2023-02-18T00:53:15;101346.44;;;13.20;79.50
22206;BME280;11272;50.104;8.754;2023-02-18T00:55:42;101351.75;;;13.20;79.47
22206;BME280;11272;50.104;8.754;2023-02-18T00:58:09;101351.75;;;13.20;79.55
22206;BME280;11272;50.104;8.754;2023-02-18T01:00:34;101348.22;;;13.20;79.66
22206;BME280;11272;50.104;8.754;2023-02-18T01:03:00;101354.41;;;13.22;79.87
22206;BME280;11272;50.104;8.754;2023-02-18T01:05:26;101354.41;;;13.22;79.64
22206;BME280;11272;50.104;8.754;2023-02-18T01:07:51;101352.63;;;13.22;79.89
22206;BME280;11272;50.104;8.754;2023-02-18T01:10:17;101350.84;;;13.21;79.79
22206;BME280;11272;50.104;8.754;2023-02-18T01:12:42;101353.59;;;13.18;79.84
22206;BME280;11272;50.104;8.754;2023-02-18T01:15:10;101347.41;;;13.16;80.32
22206;BME280;11272;50.104;8.754;2023-02-18T01:17:40;101357.22;;;13.11;80.37
22206;BME280;11272;50.104;8.754;2023-02-18T01:20:07;101346.66;;;13.05;80.62
22206;BME280;11272;50.104;8.754;2023-02-18T01:22:33;101344.00;;;13.03;80.93
22206;BME280;11272;50.104;8.754;2023-02-18T01:24:59;101358.31;;;12.99;81.11
22206;BME280;11272;50.104;8.754;2023-02-18T01:27:25;101356.59;;;12.95;81.45
22206;BME280;11272;50.104;8.754;2023-02-18T01:29:50;101345.13;;;12.90;81.41
22206;BME280;11272;50.104;8.754;2023-02-18T01:32:16;101352.31;;;12.87;81.68
22206;BME280;11272;50.104;8.754;2023-02-18T01:34:41;101345.25;;;12.83;82.12
22206;BME280;11272;50.104;8.754;2023-02-18T01:37:07;101343.50;;;12.82;82.12
22206;BME280;11272;50.104;8.754;2023-02-18T01:39:34;101347.91;;;12.83;82.49
22206;BME280;11272;50.104;8.754;2023-02-18T01:42:00;101325.69;;;12.82;82.86
22206;BME280;11272;50.104;8.754;2023-02-18T01:44:27;101333.69;;;12.84;82.60
22206;BME280;11272;50.104;8.754;2023-02-18T01:46:54;101337.22;;;12.84;82.70
22206;BME280;11272;50.104;8.754;2023-02-18T01:49:23;101328.34;;;12.85;82.85
22206;BME280;11272;50.104;8.754;2023-02-18T01:51:54;101317.66;;;12.87;82.97
22206;BME280;11272;50.104;8.754;2023-02-18T01:54:30;101313.16;;;12.89;82.83
22206;BME280;11272;50.104;8.754;2023-02-18T01:57:05;101312.25;;;12.90;82.99
22206;BME280;11272;50.104;8.754;2023-02-18T01:59:37;101306.03;;;12.91;82.79
22206;BME280;11272;50.104;8.754;2023-02-18T02:02:03;101305.16;;;12.90;83.10
22206;BME280;11272;50.104;8.754;2023-02-18T02:04:31;101300.69;;;12.91;82.88
22206;BME280;11272;50.104;8.754;2023-02-18T02:06:56;101306.88;;;12.93;82.93
22206;BME280;11272;50.104;8.754;2023-02-18T02:09:25;101310.47;;;12.92;82.78
22206;BME280;11272;50.104;8.754;2023-02-18T02:23:04;101289.13;;;12.92;82.77
22206;BME280;11272;50.104;8.754;2023-02-18T02:37:26;101292.69;;;12.91;81.67
22206;BME280;11272;50.104;8.754;2023-02-18T02:45:48;101274.91;;;12.91;80.83
22206;BME280;11272;50.104;8.754;2023-02-18T02:48:20;101272.25;;;12.91;80.65
22206;BME280;11272;50.104;8.754;2023-02-18T02:54:09;101260.69;;;12.92;80.43
22206;BME280;11272;50.104;8.754;2023-02-18T02:56:35;101258.84;;;12.94;80.09
22206;BME280;11272;50.104;8.754;2023-02-18T02:59:05;101263.31;;;12.94;80.28
22206;BME280;11272;50.104;8.754;2023-02-18T03:01:50;101262.41;;;12.93;79.66
22206;BME280;11272;50.104;8.754;2023-02-18T03:04:41;101270.47;;;12.92;79.52
22206;BME280;11272;50.104;8.754;2023-02-18T03:07:24;101257.13;;;12.92;79.21
22206;BME280;11272;50.104;8.754;2023-02-18T03:15:36;101269.59;;;12.90;78.73
22206;BME280;11272;50.104;8.754;2023-02-18T03:21:09;101266.03;;;12.91;78.64
22206;BME280;11272;50.104;8.754;2023-02-18T03:23:41;101265.13;;;12.92;78.63
22206;BME280;11272;50.104;8.754;2023-02-18T03:26:10;101255.34;;;12.92;78.50
22206;BME280;11272;50.104;8.754;2023-02-18T03:28:38;101256.22;;;12.93;78.57
22206;BME280;11272;50.104;8.754;2023-02-18T03:31:08;101256.22;;;12.93;78.36
22206;BME280;11272;50.104;8.754;2023-02-18T03:33:44;101258.88;;;12.93;78.37
22206;BME280;11272;50.104;8.754;2023-02-18T03:36:12;101256.22;;;12.93;78.39
22206;BME280;11272;50.104;8.754;2023-02-18T03:38:43;101264.22;;;12.93;78.47
22206;BME280;11272;50.104;8.754;2023-02-18T03:41:11;101258.94;;;12.91;78.40
22206;BME280;11272;50.104;8.754;2023-02-18T03:43:39;101259.81;;;12.92;78.40
22206;BME280;11272;50.104;8.754;2023-02-18T03:46:05;101272.19;;;12.93;78.23
22206;BME280;11272;50.104;8.754;2023-02-18T03:48:31;101277.53;;;12.93;78.20
22206;BME280;11272;50.104;8.754;2023-02-18T03:50:56;101266.88;;;12.93;78.08
22206;BME280;11272;50.104;8.754;2023-02-18T03:53:22;101274.88;;;12.93;78.10
22206;BME280;11272;50.104;8.754;2023-02-18T03:55:47;101266.03;;;12.92;77.79
22206;BME280;11272;50.104;8.754;2023-02-18T03:58:13;101257.13;;;12.92;77.85
22206;BME280;11272;50.104;8.754;2023-02-18T04:00:38;101249.16;;;12.92;77.81
22206;BME280;11272;50.104;8.754;2023-02-18T04:03:04;101253.53;;;12.93;77.48
22206;BME280;11272;50.104;8.754;2023-02-18T04:05:29;101257.09;;;12.93;77.48
22206;BME280;11272;50.104;8.754;2023-02-18T04:07:55;101251.75;;;12.93;77.38
22206;BME280;11272;50.104;8.754;2023-02-18T04:10:20;101240.22;;;12.93;77.38
22206;BME280;11272;50.104;8.754;2023-02-18T04:12:47;101251.75;;;12.93;77.10
22206;BME280;11272;50.104;8.754;2023-02-18T04:15:12;101244.69;;;12.92;77.30
22206;BME280;11272;50.104;8.754;2023-02-18T04:17:38;101254.44;;;12.93;77.03
22206;BME280;11272;50.104;8.754;2023-02-18T04:20:04;101250.03;;;12.91;77.21
22206;BME280;11272;50.104;8.754;2023-02-18T04:22:30;101246.50;;;12.89;77.37
22206;BME280;11272;50.104;8.754;2023-02-18T04:24:56;101244.72;;;12.89;77.42
22206;BME280;11272;50.104;8.754;2023-02-18T04:27:21;101241.22;;;12.87;77.31
22206;BME280;11272;50.104;8.754;2023-02-18T04:29:47;101243.00;;;12.87;77.62
22206;BME280;11272;50.104;8.754;2023-02-18T04:32:12;101249.25;;;12.86;77.70
22206;BME280;11272;50.104;8.754;2023-02-18T04:34:39;101243.91;;;12.86;77.54
22206;BME280;11272;50.104;8.754;2023-02-18T04:37:04;101246.63;;;12.83;77.69
22206;BME280;11272;50.104;8.754;2023-02-18T04:39:30;101247.47;;;12.85;77.33
22206;BME280;11272;50.104;8.754;2023-02-18T04:41:55;101242.16;;;12.85;77.84
22206;BME280;11272;50.104;8.754;2023-02-18T04:44:21;101249.25;;;12.86;77.27
22206;BME280;11272;50.104;8.754;2023-02-18T04:46:47;101235.91;;;12.87;77.47
22206;BME280;11272;50.104;8.754;2023-02-18T04:49:12;101243.91;;;12.86;77.27
22206;BME280;11272;50.104;8.754;2023-02-18T04:51:38;101240.38;;;12.84;76.88
22206;BME280;11272;50.104;8.754;2023-02-18T04:54:04;101241.25;;;12.84;76.93
22206;BME280;11272;50.104;8.754;2023-02-18T04:56:29;101236.88;;;12.82;76.74
22206;BME280;11272;50.104;8.754;2023-02-18T04:58:55;101242.28;;;12.77;76.77
22206;BME280;11272;50.104;8.754;2023-02-18T05:01:21;101243.25;;;12.72;76.80
22206;BME280;11272;50.104;8.754;2023-02-18T05:03:46;101243.31;;;12.70;77.42
22206;BME280;11272;50.104;8.754;2023-02-18T05:06:12;101238.00;;;12.67;77.33
22206;BME280;11272;50.104;8.754;2023-02-18T05:08:37;101234.50;;;12.65;77.36
22206;BME280;11272;50.104;8.754;2023-02-18T05:11:07;101230.16;;;12.59;78.30
22206;BME280;11272;50.104;8.754;2023-02-18T05:13:33;101224.13;;;12.50;78.38
22206;BME280;11272;50.104;8.754;2023-02-18T05:15:58;101225.09;;;12.43;78.94
22206;BME280;11272;50.104;8.754;2023-02-18T05:18:24;101220.75;;;12.39;79.00
22206;BME280;11272;50.104;8.754;2023-02-18T05:20:49;101219.06;;;12.32;80.00
22206;BME280;11272;50.104;8.754;2023-02-18T05:23:15;101217.38;;;12.28;80.22
22206;BME280;11272;50.104;8.754;2023-02-18T05:25:40;101223.66;;;12.22;80.54
22206;BME280;11272;50.104;8.754;2023-02-18T05:28:06;101203.34;;;12.16;81.01
22206;BME280;11272;50.104;8.754;2023-02-18T05:30:32;101210.47;;;12.13;81.49
22206;BME280;11272;50.104;8.754;2023-02-18T05:32:57;101211.41;;;12.10;81.88
22206;BME280;11272;50.104;8.754;2023-02-18T05:35:22;101195.53;;;12.06;82.58
22206;BME280;11272;50.104;8.754;2023-02-18T05:37:48;101192.84;;;12.06;83.43
22206;BME280;11272;50.104;8.754;2023-02-18T05:40:13;101192.84;;;12.06;83.55
22206;BME280;11272;50.104;8.754;2023-02-18T05:42:39;101189.25;;;12.08;84.28
22206;BME280;11272;50.104;8.754;2023-02-18T05:45:05;101187.47;;;12.09;84.66
22206;BME280;11272;50.104;8.754;2023-02-18T05:47:30;101178.59;;;12.08;85.50
22206;BME280;11272;50.104;8.754;2023-02-18T05:49:56;101179.47;;;12.10;85.70
22206;BME280;11272;50.104;8.754;2023-02-18T05:52:21;101181.25;;;12.10;86.19
22206;BME280;11272;50.104;8.754;2023-02-18T05:54:47;101181.25;;;12.10;86.50
22206;BME280;11272;50.104;8.754;2023-02-18T05:57:13;101176.78;;;12.12;86.79
22206;BME280;11272;50.104;8.754;2023-02-18T05:59:39;101177.63;;;12.14;86.72
22206;BME280;11272;50.104;8.754;2023-02-18T06:02:05;101167.88;;;12.13;87.36
22206;BME280;11272;50.104;8.754;2023-02-18T06:04:31;101170.53;;;12.14;87.59
22206;BME280;11272;50.104;8.754;2023-02-18T06:06:57;101166.94;;;12.17;87.92
22206;BME280;11272;50.104;8.754;2023-02-18T06:09:22;101161.56;;;12.20;87.97
22206;BME280;11272;50.104;8.754;2023-02-18T06:11:48;101156.22;;;12.21;87.78
22206;BME280;11272;50.104;8.754;2023-02-18T06:14:14;101155.25;;;12.24;87.54
22206;BME280;11272;50.104;8.754;2023-02-18T06:16:39;101161.47;;;12.26;87.86
22206;BME280;11272;50.104;8.754;2023-02-18T06:19:05;101169.38;;;12.29;87.50
22206;BME280;11272;50.104;8.754;2023-02-18T06:21:31;101167.59;;;12.31;87.05
22206;BME280;11272;50.104;8.754;2023-02-18T06:23:56;101169.28;;;12.35;86.81
22206;BME280;11272;50.104;8.754;2023-02-18T06:26:22;101159.50;;;12.37;86.46
22206;BME280;11272;50.104;8.754;2023-02-18T06:28:47;101170.97;;;12.41;86.41
22206;BME280;11272;50.104;8.754;2023-02-18T06:31:13;101173.63;;;12.42;86.38
22206;BME280;11272;50.104;8.754;2023-02-18T06:33:39;101173.53;;;12.45;86.40
22206;BME280;11272;50.104;8.754;2023-02-18T06:36:07;101165.56;;;12.45;86.26
22206;BME280;11272;50.104;8.754;2023-02-18T06:38:37;101164.66;;;12.46;85.89
22206;BME280;11272;50.104;8.754;2023-02-18T06:41:03;101161.09;;;12.47;85.13
22206;BME280;11272;50.104;8.754;2023-02-18T06:43:29;101167.22;;;12.51;84.76
22206;BME280;11272;50.104;8.754;2023-02-18T06:45:56;101170.78;;;12.51;84.93
22206;BME280;11272;50.104;8.754;2023-02-18T06:48:22;101170.75;;;12.53;84.43
22206;BME280;11272;50.104;8.754;2023-02-18T06:50:49;101163.63;;;12.55;84.25
22206;BME280;11272;50.104;8.754;2023-02-18T06:53:14;101161.81;;;12.57;82.32
22206;BME280;11272;50.104;8.754;2023-02-18T06:55:42;101161.75;;;12.60;82.14
22206;BME280;11272;50.104;8.754;2023-02-18T06:58:09;101149.31;;;12.60;81.57
22206;BME280;11272;50.104;8.754;2023-02-18T07:00:35;101142.16;;;12.62;80.29
22206;BME280;11272;50.104;8.754;2023-02-18T07:03:01;101150.16;;;12.62;79.66
22206;BME280;11272;50.104;8.754;2023-02-18T07:05:27;101145.69;;;12.64;77.96
22206;BME280;11272;50.104;8.754;2023-02-18T07:07:53;101145.63;;;12.66;77.89
22206;BME280;11272;50.104;8.754;2023-02-18T07:10:19;101155.38;;;12.69;77.65
22206;BME280;11272;50.104;8.754;2023-02-18T07:12:44;101159.81;;;12.70;76.73
22206;BME280;11272;50.104;8.754;2023-02-18T07:15:10;101144.72;;;12.69;75.82
22206;BME280;11272;50.104;8.754;2023-02-18T07:17:35;101148.25;;;12.71;74.11
22206;BME280;11272;50.104;8.754;2023-02-18T07:20:01;101149.97;;;12.72;74.02
22206;BME280;11272;50.104;8.754;2023-02-18T07:22:27;101152.63;;;12.73;72.49
22206;BME280;11272;50.104;8.754;2023-02-18T07:24:53;101134.81;;;12.75;72.04
22206;BME280;11272;50.104;8.754;2023-02-18T07:27:19;101148.13;;;12.77;71.87
22206;BME280;11272;50.104;8.754;2023-02-18T07:29:46;101132.16;;;12.77;70.78
22206;BME280;11272;50.104;8.754;2023-02-18T07:32:12;101146.28;;;12.80;70.25
22206;BME280;11272;50.104;8.754;2023-02-18T07:34:38;101169.31;;;12.83;69.28
22206;BME280;11272;50.104;8.754;2023-02-18T07:37:04;101152.41;;;12.85;68.97
22206;BME280;11272;50.104;8.754;2023-02-18T07:39:43;101152.38;;;12.87;68.13
22206;BME280;11272;50.104;8.754;2023-02-18T07:42:12;101147.88;;;12.89;68.03
22206;BME280;11272;50.104;8.754;2023-02-18T07:44:39;101160.28;;;12.91;67.28
22206;BME280;11272;50.104;8.754;2023-02-18T07:47:06;101154.91;;;12.93;67.27
22206;BME280;11272;50.104;8.754;2023-02-18T07:49:32;101153.97;;;12.97;67.34
22206;BME280;11272;50.104;8.754;2023-02-18T07:51:58;101145.84;;;13.03;67.04
22206;BME280;11272;50.104;8.754;2023-02-18T07:54:24;101145.69;;;13.09;67.05
22206;BME280;11272;50.104;8.754;2023-02-18T07:56:50;101146.47;;;13.16;66.77
22206;BME280;11272;50.104;8.754;2023-02-18T07:59:15;101152.56;;;13.22;66.48
22206;BME280;11272;50.104;8.754;2023-02-18T08:01:42;101145.38;;;13.26;65.80
22206;BME280;11272;50.104;8.754;2023-02-18T08:04:08;101153.34;;;13.29;65.07
22206;BME280;11272;50.104;8.754;2023-02-18T08:06:36;101140.91;;;13.28;64.70
22206;BME280;11272;50.104;8.754;2023-02-18T08:09:02;101132.88;;;13.29;64.19
22206;BME280;11272;50.104;8.754;2023-02-18T08:11:28;101133.69;;;13.31;63.93
22206;BME280;11272;50.104;8.754;2023-02-18T08:13:53;101129.22;;;13.33;63.53
22206;BME280;11272;50.104;8.754;2023-02-18T08:16:20;101111.44;;;13.34;63.62
22206;BME280;11272;50.104;8.754;2023-02-18T08:18:46;101121.22;;;13.33;62.81
22206;BME280;11272;50.104;8.754;2023-02-18T08:21:13;101122.09;;;13.34;62.81
22206;BME280;11272;50.104;8.754;2023-02-18T08:23:39;101130.09;;;13.35;62.62
22206;BME280;11272;50.104;8.754;2023-02-18T08:26:05;101127.34;;;13.38;62.42
22206;BME280;11272;50.104;8.754;2023-02-18T08:28:40;101126.44;;;13.39;62.35
22206;BME280;11272;50.104;8.754;2023-02-18T08:31:06;101148.34;;;13.54;62.32
22206;BME280;11272;50.104;8.754;2023-02-18T08:33:32;101140.09;;;13.64;61.86
22206;BME280;11272;50.104;8.754;2023-02-18T08:35:58;101147.84;;;13.75;61.66
22206;BME280;11272;50.104;8.754;2023-02-18T08:38:24;101154.59;;;13.91;61.08
22206;BME280;11272;50.104;8.754;2023-02-18T08:40:50;101149.78;;;14.05;60.39
22206;BME280;11272;50.104;8.754;2023-02-18T08:43:16;101155.91;;;14.10;59.82
22206;BME280;11272;50.104;8.754;2023-02-18T08:45:43;101164.53;;;14.21;59.54
22206;BME280;11272;50.104;8.754;2023-02-18T08:48:10;101160.75;;;14.31;59.13
22206;BME280;11272;50.104;8.754;2023-02-18T08:50:37;101160.66;;;14.34;59.01
22206;BME280;11272;50.104;8.754;2023-02-18T08:53:03;101171.13;;;14.44;59.05
22206;BME280;11272;50.104;8.754;2023-02-18T08:55:30;101162.31;;;14.42;58.61
22206;BME280;11272;50.104;8.754;2023-02-18T08:57:55;101159.69;;;14.39;58.41
22206;BME280;11272;50.104;8.754;2023-02-18T09:00:21;101151.72;;;14.36;57.87
22206;BME280;11272;50.104;8.754;2023-02-18T09:02:47;101147.34;;;14.33;58.11
22206;BME280;11272;50.104;8.754;2023-02-18T09:05:14;101150.97;;;14.30;57.70
22206;BME280;11272;50.104;8.754;2023-02-18T09:07:40;101152.16;;;14.19;57.30
22206;BME280;11272;50.104;8.754;2023-02-18T09:10:07;101156.09;;;14.04;57.14
22206;BME280;11272;50.104;8.754;2023-02-18T09:12:33;101145.56;;;13.97;56.97
22206;BME280;11272;50.104;8.754;2023-02-18T09:14:59;101152.78;;;13.93;57.46
22206;BME280;11272;50.104;8.754;2023-02-18T09:17:25;101158.25;;;13.87;57.33
22206;BME280;11272;50.104;8.754;2023-02-18T09:19:51;101158.44;;;13.79;57.28
22206;BME280;11272;50.104;8.754;2023-02-18T09:22:17;101153.16;;;13.76;57.45
22206;BME280;11272;50.104;8.754;2023-02-18T09:24:43;101139.75;;;13.79;57.36
22206;BME280;11272;50.104;8.754;2023-02-18T09:27:09;101159.28;;;13.81;57.21
22206;BME280;11272;50.104;8.754;2023-02-18T09:29:38;101151.19;;;13.84;57.35
22206;BME280;11272;50.104;8.754;2023-02-18T09:32:04;101152.13;;;13.83;57.10
22206;BME280;11272;50.104;8.754;2023-02-18T09:34:31;101151.28;;;13.80;57.33
22206;BME280;11272;50.104;8.754;2023-02-18T09:36:57;101138.84;;;13.79;57.12
22206;BME280;11272;50.104;8.754;2023-02-18T09:39:22;101129.94;;;13.80;57.18
22206;BME280;11272;50.104;8.754;2023-02-18T09:42:15;101134.50;;;13.75;57.29
22206;BME280;11272;50.104;8.754;2023-02-18T09:44:51;101116.81;;;13.71;57.20
22206;BME280;11272;50.104;8.754;2023-02-18T09:47:34;101122.16;;;13.71;57.29
22206;BME280;11272;50.104;8.754;2023-02-18T09:50:24;101121.25;;;13.72;57.52
22206;BME280;11272;50.104;8.754;2023-02-18T09:52:51;101142.66;;;13.69;57.62
22206;BME280;11272;50.104;8.754;2023-02-18T09:55:46;101146.22;;;13.68;57.57
22206;BME280;11272;50.104;8.754;2023-02-18T09:58:15;101145.41;;;13.66;57.87
22206;BME280;11272;50.104;8.754;2023-02-18T10:00:46;101140.13;;;13.63;57.25
22206;BME280;11272;50.104;8.754;2023-02-18T10:03:20;101135.84;;;13.56;57.38
22206;BME280;11272;50.104;8.754;2023-02-18T10:08:33;101147.31;;;13.59;57.60
22206;BME280;11272;50.104;8.754;2023-02-18T10:10:59;101150.03;;;13.58;57.45
22206;BME280;11272;50.104;8.754;2023-02-18T10:13:28;101147.41;;;13.56;57.59
22206;BME280;11272;50.104;8.754;2023-02-18T10:15:54;101134.13;;;13.52;57.58
22206;BME280;11272;50.104;8.754;2023-02-18T10:18:47;101153.75;;;13.51;57.55
22206;BME280;11272;50.104;8.754;2023-02-18T10:21:16;101127.97;;;13.51;57.53
22206;BME280;11272;50.104;8.754;2023-02-18T10:24:00;101133.13;;;13.57;57.71
22206;BME280;11272;50.104;8.754;2023-02-18T10:26:28;101135.75;;;13.60;57.22
22206;BME280;11272;50.104;8.754;2023-02-18T10:28:56;101125.00;;;13.63;57.08
22206;BME280;11272;50.104;8.754;2023-02-18T10:31:36;101124.84;;;13.69;57.13
22206;BME280;11272;50.104;8.754;2023-02-18T10:34:18;101120.22;;;13.77;56.92
22206;BME280;11272;50.104;8.754;2023-02-18T10:36:50;101108.56;;;13.81;56.97
22206;BME280;11272;50.104;8.754;2023-02-18T10:50:00;101124.31;;;13.92;56.63
22206;BME280;11272;50.104;8.754;2023-02-18T10:52:29;101121.63;;;13.94;56.20
22206;BME280;11272;50.104;8.754;2023-02-18T10:55:08;101111.81;;;13.94;55.94
22206;BME280;11272;50.104;8.754;2023-02-18T10:57:52;101123.44;;;13.91;56.24
22206;BME280;11272;50.104;8.754;2023-02-18T11:00:22;101111.84;;;13.93;56.15
22206;BME280;11272;50.104;8.754;2023-02-18T11:05:42;101091.25;;;13.98;55.90
22206;BME280;11272;50.104;8.754;2023-02-18T11:08:15;101084.06;;;14.00;56.27
22206;BME280;11272;50.104;8.754;2023-02-18T11:10:45;101079.81;;;14.26;56.10
22206;BME280;11272;50.104;8.754;2023-02-18T11:13:17;101081.63;;;14.60;55.70
22206;BME280;11272;50.104;8.754;2023-02-18T11:15:59;101073.66;;;14.89;55.03
22206;BME280;11272;50.104;8.754;2023-02-18T11:21:03;101058.13;;;15.31;54.16
22206;BME280;11272;50.104;8.754;2023-02-18T11:23:31;101063.44;;;15.33;53.80
22206;BME280;11272;50.104;8.754;2023-02-18T11:26:12;101068.81;;;15.33;53.66
22206;BME280;11272;50.104;8.754;2023-02-18T11:28:41;101070.34;;;15.40;53.25
22206;BME280;11272;50.104;8.754;2023-02-18T11:31:09;101055.28;;;15.37;53.19
22206;BME280;11272;50.104;8.754;2023-02-18T11:33:43;101059.38;;;15.49;53.12
22206;BME280;11272;50.104;8.754;2023-02-18T11:36:19;101067.41;;;15.77;52.76
22206;BME280;11272;50.104;8.754;2023-02-18T11:38:53;101062.66;;;16.13;51.61
22206;BME280;11272;50.104;8.754;2023-02-18T11:41:41;101066.59;;;16.27;51.62
22206;BME280;11272;50.104;8.754;2023-02-18T11:44:32;101047.31;;;16.16;50.67
22206;BME280;11272;50.104;8.754;2023-02-18T11:47:03;101039.31;;;15.90;50.92
22206;BME280;11272;50.104;8.754;2023-02-18T11:49:31;101040.97;;;15.66;51.01
22206;BME280;11272;50.104;8.754;2023-02-18T11:52:16;101043.56;;;15.40;51.39
22206;BME280;11272;50.104;8.754;2023-02-18T11:54:41;101057.47;;;15.23;51.74
22206;BME280;11272;50.104;8.754;2023-02-18T11:57:11;101045.75;;;14.98;51.64
22206;BME280;11272;50.104;8.754;2023-02-18T11:59:39;101029.75;;;14.67;52.04
22206;BME280;11272;50.104;8.754;2023-02-18T12:02:42;101022.97;;;14.54;52.97
22206;BME280;11272;50.104;8.754;2023-02-18T12:05:17;101028.31;;;14.54;52.91
22206;BME280;11272;50.104;8.754;2023-02-18T12:07:51;101031.97;;;14.51;53.34
22206;BME280;11272;50.104;8.754;2023-02-18T12:10:27;101026.63;;;14.51;53.19
22206;BME280;11272;50.104;8.754;2023-02-18T12:13:06;101019.66;;;14.46;53.25
22206;BME280;11272;50.104;8.754;2023-02-18T12:21:14;101012.56;;;14.45;53.76
22206;BME280;11272;50.104;8.754;2023-02-18T12:26:25;101022.41;;;14.43;53.65
22206;BME280;11272;50.104;8.754;2023-02-18T12:37:12;101009.38;;;14.30;53.94
22206;BME280;11272;50.104;8.754;2023-02-18T12:42:29;101032.09;;;14.47;54.16
22206;BME280;11272;50.104;8.754;2023-02-18T12:45:12;101022.34;;;14.46;54.01
22206;BME280;11272;50.104;8.754;2023-02-18T12:55:57;101033.28;;;14.35;54.54
22206;BME280;11272;50.104;8.754;2023-02-18T13:01:45;101028.81;;;14.36;54.57
22206;BME280;11272;50.104;8.754;2023-02-18T13:04:18;101031.84;;;14.22;55.82
22206;BME280;11272;50.104;8.754;2023-02-18T13:07:01;101026.28;;;13.97;56.71
22206;BME280;11272;50.104;8.754;2023-02-18T13:10:11;101024.66;;;13.90;57.78
22206;BME280;11272;50.104;8.754;2023-02-18T13:13:12;101046.75;;;13.97;58.73
22206;BME280;11272;50.104;8.754;2023-02-18T13:15:49;101047.06;;;13.84;59.28
22206;BME280;11272;50.104;8.754;2023-02-18T13:18:32;101053.53;;;13.76;59.88
22206;BME280;11272;50.104;8.754;2023-02-18T13:21:03;101054.16;;;13.85;60.03
22206;BME280;11272;50.104;8.754;2023-02-18T13:23:33;101049.69;;;13.87;60.08
22206;BME280;11272;50.104;8.754;2023-02-18T13:26:02;101045.22;;;13.88;60.15
22206;BME280;11272;50.104;8.754;2023-02-18T13:29:00;101047.75;;;13.93;59.95
22206;BME280;11272;50.104;8.754;2023-02-18T13:34:16;101034.69;;;13.82;60.41
22206;BME280;11272;50.104;8.754;2023-02-18T13:37:37;101028.34;;;13.86;60.33
22206;BME280;11272;50.104;8.754;2023-02-18T13:39:56;101028.19;;;13.92;60.21
22206;BME280;11272;50.104;8.754;2023-02-18T13:42:26;101037.72;;;14.02;59.98
22206;BME280;11272;50.104;8.754;2023-02-18T13:47:38;101038.03;;;14.24;59.42
22206;BME280;11272;50.104;8.754;2023-02-18T13:50:15;101030.03;;;14.24;59.05
22206;BME280;11272;50.104;8.754;2023-02-18T13:52:41;101024.69;;;14.24;59.11
22206;BME280;11272;50.104;8.754;2023-02-18T13:55:21;101030.19;;;14.18;59.07
22206;BME280;11272;50.104;8.754;2023-02-18T13:57:48;101035.47;;;14.21;58.89
22206;BME280;11272;50.104;8.754;2023-02-18T14:00:34;101030.91;;;14.24;59.00
22206;BME280;11272;50.104;8.754;2023-02-18T14:03:19;101031.91;;;14.20;58.99
22206;BME280;11272;50.104;8.754;2023-02-18T14:05:44;101028.41;;;14.17;58.75
22206;BME280;11272;50.104;8.754;2023-02-18T14:08:12;101036.56;;;14.12;59.13
22206;BME280;11272;50.104;8.754;2023-02-18T14:10:39;101049.00;;;14.13;59.29
22206;BME280;11272;50.104;8.754;2023-02-18T14:13:20;101051.72;;;14.12;59.84
22206;BME280;11272;50.104;8.754;2023-02-18T14:15:52;101051.94;;;14.03;60.02
22206;BME280;11272;50.104;8.754;2023-02-18T14:23:42;101043.59;;;13.45;62.39
22206;BME280;11272;50.104;8.754;2023-02-18T14:26:17;101043.63;;;13.42;63.01
22206;BME280;11272;50.104;8.754;2023-02-18T14:28:49;101040.94;;;13.44;63.16
22206;BME280;11272;50.104;8.754;2023-02-18T14:31:46;101039.16;;;13.44;63.67
22206;BME280;11272;50.104;8.754;2023-02-18T14:37:03;101027.50;;;13.48;63.61
22206;BME280;11272;50.104;8.754;2023-02-18T14:42:27;101029.22;;;13.51;63.89
22206;BME280;11272;50.104;8.754;2023-02-18T14:45:10;101025.53;;;13.57;63.81
22206;BME280;11272;50.104;8.754;2023-02-18T14:48:06;101027.13;;;13.64;64.02
22206;BME280;11272;50.104;8.754;2023-02-18T14:50:37;101013.75;;;13.65;63.59